sensor_id;sensor_type;location;lat;lon;timestamp;pressure;altitude;pressure_sealevel;temperature;humidity
10706;BME280;5404;42.656;23.336;2022-11-15T00:00:30;95505.66;;;3.36;100.00
10706;BME280;5404;42.656;23.336;2022-11-15T00:02:57;95509.09;;;3.36;100.00
10706;BME280;5404;42.656;23.336;2022-11-15T00:05:23;95501.09;;;3.31;100.00
10706;BME280;5404;42.656;23.336;2022-11-15T00:07:48;95511.03;;;3.29;100.00
10706;BME280;5404;42.656;23.336;2022-11-15T00:10:15;95505.19;;;3.39;100.00
10706;BME280;5404;42.656;23.336;2022-11-15T00:12:42;95487.00;;;3.26;100.00
10706;BME280;5404;42.656;23.336;2022-11-15T00:15:08;95505.66;;;3.36;100.00
10706;BME280;5404;42.656;23.336;2022-11-15T00:17:33;95508.25;;;3.47;100.00
10706;BME280;5404;42.656;23.336;2022-11-15T00:19:59;95498.84;;;3.51;100.00
10706;BME280;5404;42.656;23.336;2022-11-15T00:22:24;95499.66;;;3.52;100.00
10706;BME280;5404;42.656;23.336;2022-11-15T00:24:49;95504.47;;;3.55;100.00
10706;BME280;5404;42.656;23.336;2022-11-15T00:27:16;95502.34;;;3.40;100.00
10706;BME280;5404;42.656;23.336;2022-11-15T00:29:42;95498.41;;;3.43;100.00
10706;BME280;5404;42.656;23.336;2022-11-15T00:32:11;95495.97;;;3.53;100.00
10706;BME280;5404;42.656;23.336;2022-11-15T00:34:36;95489.81;;;3.47;100.00
10706;BME280;5404;42.656;23.336;2022-11-15T00:37:02;95487.50;;;3.51;100.00
10706;BME280;5404;42.656;23.336;2022-11-15T00:39:27;95480.31;;;3.46;100.00
10706;BME280;5404;42.656;23.336;2022-11-15T00:41:53;95471.84;;;3.44;100.00
10706;BME280;5404;42.656;23.336;2022-11-15T00:44:18;95482.94;;;3.46;100.00
10706;BME280;5404;42.656;23.336;2022-11-15T00:46:44;95466.75;;;3.26;100.00
10706;BME280;5404;42.656;23.336;2022-11-15T00:49:09;95474.50;;;3.33;100.00
10706;BME280;5404;42.656;23.336;2022-11-15T00:51:35;95469.25;;;3.33;100.00
10706;BME280;5404;42.656;23.336;2022-11-15T00:54:00;95481.81;;;3.42;100.00
10706;BME280;5404;42.656;23.336;2022-11-15T00:56:27;95473.59;;;3.27;100.00
10706;BME280;5404;42.656;23.336;2022-11-15T00:58:53;95465.50;;;3.17;100.00
10706;BME280;5404;42.656;23.336;2022-11-15T01:01:21;95475.78;;;3.30;100.00
10706;BME280;5404;42.656;23.336;2022-11-15T01:03:47;95478.63;;;3.29;100.00
10706;BME280;5404;42.656;23.336;2022-11-15T01:06:12;95469.97;;;3.28;100.00
10706;BME280;5404;42.656;23.336;2022-11-15T01:08:39;95467.63;;;3.32;100.00
10706;BME280;5404;42.656;23.336;2022-11-15T01:11:11;95472.13;;;3.31;100.00
10706;BME280;5404;42.656;23.336;2022-11-15T01:13:38;95455.88;;;3.23;100.00
10706;BME280;5404;42.656;23.336;2022-11-15T01:16:09;95465.94;;;3.26;100.00
10706;BME280;5404;42.656;23.336;2022-11-15T01:18:35;95461.81;;;3.18;100.00
10706;BME280;5404;42.656;23.336;2022-11-15T01:21:05;95465.03;;;3.20;100.00
10706;BME280;5404;42.656;23.336;2022-11-15T01:23:31;95463.88;;;3.28;100.00
10706;BME280;5404;42.656;23.336;2022-11-15T01:26:01;95445.81;;;3.08;100.00
10706;BME280;5404;42.656;23.336;2022-11-15T01:28:33;95464.78;;;3.22;100.00
10706;BME280;5404;42.656;23.336;2022-11-15T01:31:00;95455.31;;;3.21;100.00
10706;BME280;5404;42.656;23.336;2022-11-15T01:33:28;95457.47;;;3.24;100.00
10706;BME280;5404;42.656;23.336;2022-11-15T01:35:54;95455.53;;;3.19;100.00
10706;BME280;5404;42.656;23.336;2022-11-15T01:38:21;95440.31;;;3.10;100.00
10706;BME280;5404;42.656;23.336;2022-11-15T01:40:48;95446.91;;;2.96;100.00
10706;BME280;5404;42.656;23.336;2022-11-15T01:43:25;95445.38;;;3.00;100.00
10706;BME280;5404;42.656;23.336;2022-11-15T01:46:06;95458.75;;;3.10;100.00
10706;BME280;5404;42.656;23.336;2022-11-15T01:48:33;95466.31;;;3.06;100.00
10706;BME280;5404;42.656;23.336;2022-11-15T01:51:01;95462.31;;;3.15;100.00
10706;BME280;5404;42.656;23.336;2022-11-15T01:53:29;95440.22;;;3.05;100.00
10706;BME280;5404;42.656;23.336;2022-11-15T01:55:55;95462.84;;;3.29;100.00
10706;BME280;5404;42.656;23.336;2022-11-15T01:58:23;95458.63;;;3.28;100.00
10706;BME280;5404;42.656;23.336;2022-11-15T02:00:49;95450.41;;;3.13;100.00
10706;BME280;5404;42.656;23.336;2022-11-15T02:03:16;95457.72;;;3.22;100.00
10706;BME280;5404;42.656;23.336;2022-11-15T02:05:43;95466.84;;;3.31;100.00
10706;BME280;5404;42.656;23.336;2022-11-15T02:08:10;95458.38;;;3.29;100.00
10706;BME280;5404;42.656;23.336;2022-11-15T02:10:48;95460.44;;;3.27;100.00
10706;BME280;5404;42.656;23.336;2022-11-15T02:13:17;95456.66;;;3.23;100.00
10706;BME280;5404;42.656;23.336;2022-11-15T02:18:47;95451.91;;;3.09;100.00
10706;BME280;5404;42.656;23.336;2022-11-15T02:21:32;95447.88;;;3.06;100.00
10706;BME280;5404;42.656;23.336;2022-11-15T02:29:59;95445.28;;;2.95;100.00
10706;BME280;5404;42.656;23.336;2022-11-15T02:32:41;95442.53;;;2.90;100.00
10706;BME280;5404;42.656;23.336;2022-11-15T02:35:57;95445.78;;;2.80;100.00
10706;BME280;5404;42.656;23.336;2022-11-15T02:41:17;95440.50;;;2.80;100.00
10706;BME280;5404;42.656;23.336;2022-11-15T02:44:03;95430.53;;;2.82;100.00
10706;BME280;5404;42.656;23.336;2022-11-15T02:49:44;95440.50;;;2.92;100.00
10706;BME280;5404;42.656;23.336;2022-11-15T02:52:17;95435.44;;;3.02;100.00
10706;BME280;5404;42.656;23.336;2022-11-15T02:54:56;95435.06;;;3.10;100.00
10706;BME280;5404;42.656;23.336;2022-11-15T02:57:47;95437.94;;;3.20;100.00
10706;BME280;5404;42.656;23.336;2022-11-15T03:00:18;95436.03;;;3.32;100.00
10706;BME280;5404;42.656;23.336;2022-11-15T03:03:18;95444.50;;;3.45;100.00
10706;BME280;5404;42.656;23.336;2022-11-15T03:08:51;95437.69;;;3.61;100.00
10706;BME280;5404;42.656;23.336;2022-11-15T03:11:21;95427.00;;;3.56;100.00
10706;BME280;5404;42.656;23.336;2022-11-15T03:16:46;95442.66;;;3.74;100.00
10706;BME280;5404;42.656;23.336;2022-11-15T03:22:15;95415.41;;;3.69;100.00
10706;BME280;5404;42.656;23.336;2022-11-15T03:24:43;95442.34;;;3.87;100.00
10706;BME280;5404;42.656;23.336;2022-11-15T03:27:15;95418.63;;;3.87;100.00
10706;BME280;5404;42.656;23.336;2022-11-15T03:29:47;95432.09;;;4.02;100.00
10706;BME280;5404;42.656;23.336;2022-11-15T03:32:24;95424.91;;;4.14;100.00
10706;BME280;5404;42.656;23.336;2022-11-15T03:34:55;95424.41;;;4.17;100.00
10706;BME280;5404;42.656;23.336;2022-11-15T03:37:30;95421.84;;;4.22;100.00
10706;BME280;5404;42.656;23.336;2022-11-15T03:39:58;95398.75;;;4.13;100.00
10706;BME280;5404;42.656;23.336;2022-11-15T03:43:19;95402.03;;;4.36;100.00
10706;BME280;5404;42.656;23.336;2022-11-15T03:45:22;95403.94;;;4.41;100.00
10706;BME280;5404;42.656;23.336;2022-11-15T03:47:57;95389.94;;;4.40;100.00
10706;BME280;5404;42.656;23.336;2022-11-15T03:50:24;95388.84;;;4.36;100.00
10706;BME280;5404;42.656;23.336;2022-11-15T03:52:54;95403.94;;;4.41;100.00
10706;BME280;5404;42.656;23.336;2022-11-15T03:55:21;95393.63;;;4.39;100.00
10706;BME280;5404;42.656;23.336;2022-11-15T03:57:50;95395.78;;;4.42;100.00
10706;BME280;5404;42.656;23.336;2022-11-15T04:00:18;95396.44;;;4.33;100.00
10706;BME280;5404;42.656;23.336;2022-11-15T04:02:44;95398.34;;;4.37;100.00
10706;BME280;5404;42.656;23.336;2022-11-15T04:05:09;95399.00;;;4.28;100.00
10706;BME280;5404;42.656;23.336;2022-11-15T04:07:35;95357.03;;;4.10;100.00
10706;BME280;5404;42.656;23.336;2022-11-15T04:10:01;95389.09;;;4.35;100.00
10706;BME280;5404;42.656;23.336;2022-11-15T04:12:35;95395.16;;;4.35;100.00
10706;BME280;5404;42.656;23.336;2022-11-15T04:15:05;95398.03;;;4.34;100.00
10706;BME280;5404;42.656;23.336;2022-11-15T04:17:41;95385.25;;;4.26;100.00
10706;BME280;5404;42.656;23.336;2022-11-15T04:20:16;95385.75;;;4.23;100.00
10706;BME280;5404;42.656;23.336;2022-11-15T04:23:04;95389.56;;;4.32;100.00
10706;BME280;5404;42.656;23.336;2022-11-15T04:25:51;95388.44;;;4.44;100.00
10706;BME280;5404;42.656;23.336;2022-11-15T04:28:17;95386.34;;;4.46;100.00
10706;BME280;5404;42.656;23.336;2022-11-15T04:30:43;95387.47;;;4.50;100.00
10706;BME280;5404;42.656;23.336;2022-11-15T04:33:09;95393.38;;;4.57;100.00
10706;BME280;5404;42.656;23.336;2022-11-15T04:35:35;95389.69;;;4.58;100.00
10706;BME280;5404;42.656;23.336;2022-11-15T04:38:02;95394.25;;;4.63;100.00
10706;BME280;5404;42.656;23.336;2022-11-15T04:40:28;95391.53;;;4.58;100.00
10706;BME280;5404;42.656;23.336;2022-11-15T04:42:57;95396.53;;;4.38;100.00
10706;BME280;5404;42.656;23.336;2022-11-15T04:45:22;95390.84;;;4.13;100.00
10706;BME280;5404;42.656;23.336;2022-11-15T04:47:48;95388.00;;;4.14;100.00
10706;BME280;5404;42.656;23.336;2022-11-15T04:50:14;95390.84;;;4.13;100.00
10706;BME280;5404;42.656;23.336;2022-11-15T04:52:41;95381.25;;;4.07;100.00
10706;BME280;5404;42.656;23.336;2022-11-15T04:55:09;95397.31;;;4.22;100.00
10706;BME280;5404;42.656;23.336;2022-11-15T04:57:35;95394.13;;;4.20;100.00
10706;BME280;5404;42.656;23.336;2022-11-15T05:00:04;95395.56;;;4.27;100.00
10706;BME280;5404;42.656;23.336;2022-11-15T05:02:30;95403.22;;;4.29;100.00
10706;BME280;5404;42.656;23.336;2022-11-15T05:05:16;95398.84;;;4.01;100.00
10706;BME280;5404;42.656;23.336;2022-11-15T05:07:41;95408.56;;;3.84;100.00
10706;BME280;5404;42.656;23.336;2022-11-15T05:10:07;95377.44;;;3.53;100.00
10706;BME280;5404;42.656;23.336;2022-11-15T05:12:33;95402.41;;;3.79;100.00
10706;BME280;5404;42.656;23.336;2022-11-15T05:14:58;95408.72;;;3.94;100.00
10706;BME280;5404;42.656;23.336;2022-11-15T05:17:24;95411.19;;;4.01;100.00
10706;BME280;5404;42.656;23.336;2022-11-15T05:19:50;95408.88;;;4.04;100.00
10706;BME280;5404;42.656;23.336;2022-11-15T05:22:17;95402.03;;;4.03;100.00
10706;BME280;5404;42.656;23.336;2022-11-15T05:24:44;95400.53;;;4.07;100.00
10706;BME280;5404;42.656;23.336;2022-11-15T05:27:09;95413.53;;;4.14;100.00
10706;BME280;5404;42.656;23.336;2022-11-15T05:29:35;95407.31;;;4.20;100.00
10706;BME280;5404;42.656;23.336;2022-11-15T05:32:00;95408.44;;;4.07;100.00
10706;BME280;5404;42.656;23.336;2022-11-15T05:34:26;95412.41;;;4.10;100.00
10706;BME280;5404;42.656;23.336;2022-11-15T05:36:52;95396.28;;;4.06;100.00
10706;BME280;5404;42.656;23.336;2022-11-15T05:39:18;95412.44;;;4.26;100.00
10706;BME280;5404;42.656;23.336;2022-11-15T05:41:51;95392.63;;;4.07;100.00
10706;BME280;5404;42.656;23.336;2022-11-15T05:44:23;95387.97;;;3.98;100.00
10706;BME280;5404;42.656;23.336;2022-11-15T05:46:51;95405.31;;;4.10;100.00
10706;BME280;5404;42.656;23.336;2022-11-15T05:49:20;95414.88;;;4.00;100.00
10706;BME280;5404;42.656;23.336;2022-11-15T05:51:48;95423.88;;;3.87;100.00
10706;BME280;5404;42.656;23.336;2022-11-15T05:54:16;95398.94;;;3.62;100.00
10706;BME280;5404;42.656;23.336;2022-11-15T05:56:43;95418.34;;;3.55;100.00
10706;BME280;5404;42.656;23.336;2022-11-15T05:59:11;95405.84;;;3.51;100.00
10706;BME280;5404;42.656;23.336;2022-11-15T06:01:37;95412.00;;;3.56;100.00
10706;BME280;5404;42.656;23.336;2022-11-15T06:04:03;95407.75;;;3.84;100.00
10706;BME280;5404;42.656;23.336;2022-11-15T06:06:29;95414.25;;;3.93;100.00
10706;BME280;5404;42.656;23.336;2022-11-15T06:08:55;95438.16;;;4.19;100.00
10706;BME280;5404;42.656;23.336;2022-11-15T06:11:21;95426.41;;;4.10;100.00
10706;BME280;5404;42.656;23.336;2022-11-15T06:13:46;95431.59;;;4.22;100.00
10706;BME280;5404;42.656;23.336;2022-11-15T06:16:12;95440.00;;;4.35;100.00
10706;BME280;5404;42.656;23.336;2022-11-15T06:18:39;95432.25;;;4.45;100.00
10706;BME280;5404;42.656;23.336;2022-11-15T06:21:05;95433.94;;;4.51;100.00
10706;BME280;5404;42.656;23.336;2022-11-15T06:23:34;95437.66;;;4.72;100.00
10706;BME280;5404;42.656;23.336;2022-11-15T06:26:02;95446.28;;;4.84;100.00
10706;BME280;5404;42.656;23.336;2022-11-15T06:28:31;95437.09;;;4.87;100.00
10706;BME280;5404;42.656;23.336;2022-11-15T06:31:09;95440.56;;;4.54;100.00
10706;BME280;5404;42.656;23.336;2022-11-15T06:33:38;95438.94;;;4.69;100.00
10706;BME280;5404;42.656;23.336;2022-11-15T06:36:05;95433.38;;;4.66;100.00
10706;BME280;5404;42.656;23.336;2022-11-15T06:38:33;95406.03;;;4.55;100.00
10706;BME280;5404;42.656;23.336;2022-11-15T06:41:02;95427.91;;;4.72;100.00
10706;BME280;5404;42.656;23.336;2022-11-15T06:43:29;95428.22;;;4.76;100.00
10706;BME280;5404;42.656;23.336;2022-11-15T06:45:55;95436.16;;;4.98;100.00
10706;BME280;5404;42.656;23.336;2022-11-15T06:48:22;95428.50;;;4.96;100.00
10706;BME280;5404;42.656;23.336;2022-11-15T06:50:54;95436.91;;;4.93;100.00
10706;BME280;5404;42.656;23.336;2022-11-15T06:53:20;95432.38;;;4.72;100.00
10706;BME280;5404;42.656;23.336;2022-11-15T06:55:47;95436.22;;;4.81;100.00
10706;BME280;5404;42.656;23.336;2022-11-15T06:58:13;95430.22;;;4.69;100.00
10706;BME280;5404;42.656;23.336;2022-11-15T07:00:38;95422.81;;;4.66;100.00
10706;BME280;5404;42.656;23.336;2022-11-15T07:03:04;95434.09;;;5.00;100.00
10706;BME280;5404;42.656;23.336;2022-11-15T07:05:30;95426.34;;;5.15;100.00
10706;BME280;5404;42.656;23.336;2022-11-15T07:07:56;95434.91;;;5.22;100.00
10706;BME280;5404;42.656;23.336;2022-11-15T07:10:23;95436.78;;;5.05;100.00
10706;BME280;5404;42.656;23.336;2022-11-15T07:12:53;95431.25;;;4.85;100.00
10706;BME280;5404;42.656;23.336;2022-11-15T07:15:26;95412.06;;;4.72;100.00
10706;BME280;5404;42.656;23.336;2022-11-15T07:17:51;95411.75;;;4.69;100.00
10706;BME280;5404;42.656;23.336;2022-11-15T07:20:23;95420.44;;;4.86;100.00
10706;BME280;5404;42.656;23.336;2022-11-15T07:22:49;95411.63;;;4.59;100.00
10706;BME280;5404;42.656;23.336;2022-11-15T07:25:14;95414.47;;;4.57;100.00
10706;BME280;5404;42.656;23.336;2022-11-15T07:27:40;95404.47;;;4.59;100.00
10706;BME280;5404;42.656;23.336;2022-11-15T07:30:06;95421.75;;;4.67;100.00
10706;BME280;5404;42.656;23.336;2022-11-15T07:32:32;95433.44;;;4.71;100.00
10706;BME280;5404;42.656;23.336;2022-11-15T07:34:57;95420.38;;;4.64;100.00
10706;BME280;5404;42.656;23.336;2022-11-15T07:37:23;95430.63;;;4.78;100.00
10706;BME280;5404;42.656;23.336;2022-11-15T07:39:49;95439.44;;;5.05;100.00
10706;BME280;5404;42.656;23.336;2022-11-15T07:42:15;95411.38;;;4.99;100.00
10706;BME280;5404;42.656;23.336;2022-11-15T07:44:59;95438.28;;;5.39;100.00
10706;BME280;5404;42.656;23.336;2022-11-15T07:47:24;95429.13;;;5.46;100.00
10706;BME280;5404;42.656;23.336;2022-11-15T07:49:49;95427.91;;;5.32;100.00
10706;BME280;5404;42.656;23.336;2022-11-15T07:52:15;95414.69;;;5.11;100.00
10706;BME280;5404;42.656;23.336;2022-11-15T07:54:41;95423.69;;;5.31;100.00
10706;BME280;5404;42.656;23.336;2022-11-15T07:57:08;95404.22;;;5.42;100.00
10706;BME280;5404;42.656;23.336;2022-11-15T07:59:34;95423.03;;;5.67;100.00
10706;BME280;5404;42.656;23.336;2022-11-15T08:02:00;95420.31;;;5.84;100.00
10706;BME280;5404;42.656;23.336;2022-11-15T08:04:26;95393.91;;;5.89;100.00
10706;BME280;5404;42.656;23.336;2022-11-15T08:06:51;95409.41;;;6.07;100.00
10706;BME280;5404;42.656;23.336;2022-11-15T08:09:17;95408.25;;;5.93;100.00
10706;BME280;5404;42.656;23.336;2022-11-15T08:11:43;95400.00;;;5.89;100.00
10706;BME280;5404;42.656;23.336;2022-11-15T08:14:08;95401.69;;;5.74;100.00
10706;BME280;5404;42.656;23.336;2022-11-15T08:16:34;95390.34;;;5.52;100.00
10706;BME280;5404;42.656;23.336;2022-11-15T08:18:59;95396.03;;;5.65;100.00
10706;BME280;5404;42.656;23.336;2022-11-15T08:21:26;95396.91;;;5.71;100.00
10706;BME280;5404;42.656;23.336;2022-11-15T08:23:52;95384.09;;;5.63;100.00
10706;BME280;5404;42.656;23.336;2022-11-15T08:26:18;95394.06;;;5.77;100.00
10706;BME280;5404;42.656;23.336;2022-11-15T08:28:43;95391.09;;;6.01;100.00
10706;BME280;5404;42.656;23.336;2022-11-15T08:31:14;95388.34;;;6.17;100.00
10706;BME280;5404;42.656;23.336;2022-11-15T08:33:42;95383.41;;;6.26;100.00
10706;BME280;5404;42.656;23.336;2022-11-15T08:36:13;95385.59;;;6.39;100.00
10706;BME280;5404;42.656;23.336;2022-11-15T08:38:40;95389.56;;;6.36;100.00
10706;BME280;5404;42.656;23.336;2022-11-15T08:41:10;95366.81;;;6.04;100.00
10706;BME280;5404;42.656;23.336;2022-11-15T08:43:38;95366.44;;;5.95;100.00
10706;BME280;5404;42.656;23.336;2022-11-15T08:46:04;95385.50;;;6.24;100.00
10706;BME280;5404;42.656;23.336;2022-11-15T08:48:29;95375.25;;;6.32;100.00
10706;BME280;5404;42.656;23.336;2022-11-15T08:50:55;95369.63;;;6.24;100.00
10706;BME280;5404;42.656;23.336;2022-11-15T08:53:21;95370.44;;;6.24;100.00
10706;BME280;5404;42.656;23.336;2022-11-15T08:55:47;95368.66;;;6.03;100.00
10706;BME280;5404;42.656;23.336;2022-11-15T08:58:13;95368.88;;;5.97;100.00
10706;BME280;5404;42.656;23.336;2022-11-15T09:00:39;95352.88;;;6.13;100.00
10706;BME280;5404;42.656;23.336;2022-11-15T09:03:06;95364.22;;;6.09;100.00
10706;BME280;5404;42.656;23.336;2022-11-15T09:05:36;95354.44;;;6.14;100.00
10706;BME280;5404;42.656;23.336;2022-11-15T09:08:03;95355.47;;;6.40;100.00
10706;BME280;5404;42.656;23.336;2022-11-15T09:10:30;95345.78;;;6.19;100.00
10706;BME280;5404;42.656;23.336;2022-11-15T09:12:58;95356.50;;;6.07;100.00
10706;BME280;5404;42.656;23.336;2022-11-15T09:15:24;95337.97;;;6.39;100.00
10706;BME280;5404;42.656;23.336;2022-11-15T09:17:50;95342.91;;;6.67;100.00
10706;BME280;5404;42.656;23.336;2022-11-15T09:20:16;95329.22;;;6.85;100.00
10706;BME280;5404;42.656;23.336;2022-11-15T09:22:42;95316.81;;;6.90;100.00
10706;BME280;5404;42.656;23.336;2022-11-15T09:25:07;95311.16;;;6.72;100.00
10706;BME280;5404;42.656;23.336;2022-11-15T09:27:33;95308.75;;;6.65;100.00
10706;BME280;5404;42.656;23.336;2022-11-15T09:29:59;95317.25;;;6.72;100.00
10706;BME280;5404;42.656;23.336;2022-11-15T09:32:28;95309.91;;;6.84;100.00
10706;BME280;5404;42.656;23.336;2022-11-15T09:34:55;95291.31;;;6.79;100.00
10706;BME280;5404;42.656;23.336;2022-11-15T09:37:20;95296.97;;;6.93;100.00
10706;BME280;5404;42.656;23.336;2022-11-15T09:39:46;95274.44;;;6.95;100.00
10706;BME280;5404;42.656;23.336;2022-11-15T09:50:48;95274.34;;;7.87;100.00
10706;BME280;5404;42.656;23.336;2022-11-15T09:53:25;95264.25;;;8.09;100.00
10706;BME280;5404;42.656;23.336;2022-11-15T09:55:58;95257.56;;;8.17;100.00
10706;BME280;5404;42.656;23.336;2022-11-15T09:59:07;95249.88;;;8.20;100.00
10706;BME280;5404;42.656;23.336;2022-11-15T10:04:13;95220.59;;;8.61;100.00
10706;BME280;5404;42.656;23.336;2022-11-15T10:07:06;95229.78;;;8.88;100.00
10706;BME280;5404;42.656;23.336;2022-11-15T10:09:42;95217.78;;;9.39;100.00
10706;BME280;5404;42.656;23.336;2022-11-15T10:12:13;95202.31;;;9.47;100.00
10706;BME280;5404;42.656;23.336;2022-11-15T10:14:39;95199.28;;;10.20;100.00
10706;BME280;5404;42.656;23.336;2022-11-15T10:20:06;95157.59;;;11.69;100.00
10706;BME280;5404;42.656;23.336;2022-11-15T10:22:45;95132.41;;;13.69;100.00
10706;BME280;5404;42.656;23.336;2022-11-15T10:25:29;95131.59;;;15.68;100.00
10706;BME280;5404;42.656;23.336;2022-11-15T10:27:58;95122.75;;;15.42;100.00
10706;BME280;5404;42.656;23.336;2022-11-15T10:30:32;95111.16;;;17.05;100.00
10706;BME280;5404;42.656;23.336;2022-11-15T10:33:19;95094.50;;;18.54;100.00
10706;BME280;5404;42.656;23.336;2022-11-15T10:35:46;95098.56;;;20.04;91.16
10706;BME280;5404;42.656;23.336;2022-11-15T10:38:12;95084.19;;;21.09;82.45
10706;BME280;5404;42.656;23.336;2022-11-15T10:40:39;95095.41;;;20.60;77.66
10706;BME280;5404;42.656;23.336;2022-11-15T10:43:13;95085.69;;;20.91;71.08
10706;BME280;5404;42.656;23.336;2022-11-15T10:45:40;95086.66;;;19.77;78.56
10706;BME280;5404;42.656;23.336;2022-11-15T10:48:26;95077.72;;;20.04;77.22
10706;BME280;5404;42.656;23.336;2022-11-15T10:50:53;95072.97;;;19.58;76.40
10706;BME280;5404;42.656;23.336;2022-11-15T10:53:28;95074.66;;;19.62;75.36
10706;BME280;5404;42.656;23.336;2022-11-15T10:55:56;95072.22;;;18.82;85.42
10706;BME280;5404;42.656;23.336;2022-11-15T10:58:42;95064.31;;;19.13;79.25
10706;BME280;5404;42.656;23.336;2022-11-15T11:04:09;95044.41;;;17.97;85.38
10706;BME280;5404;42.656;23.336;2022-11-15T11:06:57;95045.22;;;18.94;82.76
10706;BME280;5404;42.656;23.336;2022-11-15T11:09:33;95040.84;;;19.68;78.25
10706;BME280;5404;42.656;23.336;2022-11-15T11:12:00;95039.09;;;19.21;79.34
10706;BME280;5404;42.656;23.336;2022-11-15T11:14:28;95031.13;;;19.12;78.87
10706;BME280;5404;42.656;23.336;2022-11-15T11:17:06;95026.16;;;18.38;83.48
10706;BME280;5404;42.656;23.336;2022-11-15T11:27:35;95020.41;;;16.85;100.00
10706;BME280;5404;42.656;23.336;2022-11-15T11:32:52;95000.28;;;18.37;89.41
10706;BME280;5404;42.656;23.336;2022-11-15T11:35:58;94981.13;;;17.70;90.79
10706;BME280;5404;42.656;23.336;2022-11-15T11:43:56;94984.41;;;15.82;100.00
10706;BME280;5404;42.656;23.336;2022-11-15T11:49:20;94981.41;;;15.83;100.00
10706;BME280;5404;42.656;23.336;2022-11-15T11:51:56;94979.44;;;15.63;100.00
10706;BME280;5404;42.656;23.336;2022-11-15T11:54:32;94968.00;;;15.11;100.00
10706;BME280;5404;42.656;23.336;2022-11-15T12:00:22;94953.50;;;14.44;100.00
10706;BME280;5404;42.656;23.336;2022-11-15T12:05:41;94942.31;;;13.47;100.00
10706;BME280;5404;42.656;23.336;2022-11-15T12:08:41;94951.97;;;13.17;100.00
10706;BME280;5404;42.656;23.336;2022-11-15T12:11:14;94937.25;;;13.06;100.00
10706;BME280;5404;42.656;23.336;2022-11-15T12:13:43;94948.72;;;12.62;100.00
10706;BME280;5404;42.656;23.336;2022-11-15T12:16:30;94945.88;;;12.81;100.00
10706;BME280;5404;42.656;23.336;2022-11-15T12:18:59;94940.03;;;12.57;100.00
10706;BME280;5404;42.656;23.336;2022-11-15T12:24:08;94937.09;;;12.09;100.00
10706;BME280;5404;42.656;23.336;2022-11-15T12:26:41;94916.09;;;11.81;100.00
10706;BME280;5404;42.656;23.336;2022-11-15T12:29:41;94929.31;;;11.31;100.00
10706;BME280;5404;42.656;23.336;2022-11-15T12:32:30;94931.84;;;11.09;100.00
10706;BME280;5404;42.656;23.336;2022-11-15T12:35:03;94939.00;;;10.82;100.00
10706;BME280;5404;42.656;23.336;2022-11-15T12:40:28;94931.34;;;10.94;100.00
10706;BME280;5404;42.656;23.336;2022-11-15T12:43:02;94927.38;;;10.91;100.00
10706;BME280;5404;42.656;23.336;2022-11-15T12:45:36;94925.38;;;10.83;100.00
10706;BME280;5404;42.656;23.336;2022-11-15T13:04:21;94914.97;;;10.68;100.00
10706;BME280;5404;42.656;23.336;2022-11-15T13:11:56;94916.34;;;10.66;100.00
10706;BME280;5404;42.656;23.336;2022-11-15T13:19:46;94901.41;;;10.83;100.00
10706;BME280;5404;42.656;23.336;2022-11-15T13:22:12;94904.28;;;10.87;100.00
10706;BME280;5404;42.656;23.336;2022-11-15T13:24:57;94897.00;;;11.06;100.00
10706;BME280;5404;42.656;23.336;2022-11-15T13:27:24;94893.44;;;10.97;100.00
10706;BME280;5404;42.656;23.336;2022-11-15T13:29:50;94890.88;;;11.05;100.00
10706;BME280;5404;42.656;23.336;2022-11-15T13:32:16;94892.03;;;10.99;100.00
10706;BME280;5404;42.656;23.336;2022-11-15T13:34:46;94880.81;;;11.02;100.00
10706;BME280;5404;42.656;23.336;2022-11-15T13:37:33;94883.34;;;10.94;100.00
10706;BME280;5404;42.656;23.336;2022-11-15T13:40:39;94890.25;;;10.95;100.00
10706;BME280;5404;42.656;23.336;2022-11-15T13:48:36;94877.50;;;10.78;100.00
10706;BME280;5404;42.656;23.336;2022-11-15T13:51:04;94871.47;;;10.73;100.00
10706;BME280;5404;42.656;23.336;2022-11-15T13:53:38;94886.03;;;10.62;100.00
10706;BME280;5404;42.656;23.336;2022-11-15T13:56:05;94888.41;;;10.63;100.00
10706;BME280;5404;42.656;23.336;2022-11-15T13:58:32;94870.50;;;10.50;100.00
10706;BME280;5404;42.656;23.336;2022-11-15T14:01:03;94881.59;;;10.57;100.00
10706;BME280;5404;42.656;23.336;2022-11-15T14:03:35;94867.72;;;10.41;100.00
10706;BME280;5404;42.656;23.336;2022-11-15T14:06:15;94882.06;;;10.45;100.00
10706;BME280;5404;42.656;23.336;2022-11-15T14:11:55;94887.25;;;10.37;100.00
10706;BME280;5404;42.656;23.336;2022-11-15T14:14:24;94884.72;;;10.27;100.00
10706;BME280;5404;42.656;23.336;2022-11-15T14:16:54;94884.66;;;10.13;100.00
10706;BME280;5404;42.656;23.336;2022-11-15T14:25:19;94894.06;;;9.69;100.00
10706;BME280;5404;42.656;23.336;2022-11-15T14:30:45;94899.06;;;9.52;100.00
10706;BME280;5404;42.656;23.336;2022-11-15T14:35:55;94905.84;;;9.39;100.00
10706;BME280;5404;42.656;23.336;2022-11-15T14:38:23;94894.56;;;9.28;100.00
10706;BME280;5404;42.656;23.336;2022-11-15T14:40:50;94901.22;;;9.26;100.00
10706;BME280;5404;42.656;23.336;2022-11-15T14:43:16;94892.63;;;9.10;100.00
10706;BME280;5404;42.656;23.336;2022-11-15T14:45:43;94907.06;;;9.04;100.00
10706;BME280;5404;42.656;23.336;2022-11-15T14:48:09;94896.84;;;8.88;100.00
10706;BME280;5404;42.656;23.336;2022-11-15T14:50:35;94915.13;;;8.94;100.00
10706;BME280;5404;42.656;23.336;2022-11-15T14:53:01;94917.69;;;8.76;100.00
10706;BME280;5404;42.656;23.336;2022-11-15T14:55:29;94911.63;;;8.70;100.00
10706;BME280;5404;42.656;23.336;2022-11-15T14:57:57;94918.03;;;8.69;100.00
10706;BME280;5404;42.656;23.336;2022-11-15T15:00:22;94911.03;;;8.45;100.00
10706;BME280;5404;42.656;23.336;2022-11-15T15:02:48;94926.69;;;8.51;100.00
10706;BME280;5404;42.656;23.336;2022-11-15T15:07:58;94925.97;;;8.41;100.00
10706;BME280;5404;42.656;23.336;2022-11-15T15:10:26;94925.97;;;8.41;100.00
10706;BME280;5404;42.656;23.336;2022-11-15T15:12:53;94927.31;;;8.38;100.00